Time;durP1;ratioP1;P1;durP2;ratioP2;P2;SDS_P1;SDS_P2;PMS_P1;PMS_P2;Temp;Humidity;BMP_temperature;BMP_pressure;BME280_temperature;BME280_humidity;BME280_pressure;Samples;Min_cycle;Max_cycle;Signal;HPM_P1;HPM_P2
2022/03/13 00:02:07;;;;;;;13.57;10.40;;;;;;;2.73;58.17;100139.00;5053288;28;20212;-63
2022/03/13 00:04:32;;;;;;;14.70;11.07;;;;;;;2.73;59.01;100133.91;5069003;28;20179;-62
2022/03/13 00:06:58;;;;;;;13.57;10.70;;;;;;;2.77;58.41;100136.38;5067215;28;20244;-63
2022/03/13 00:09:25;;;;;;;14.60;11.10;;;;;;;2.70;58.57;100138.22;5058215;28;20189;-62
2022/03/13 00:11:53;;;;;;;14.73;11.30;;;;;;;2.59;58.66;100133.38;5077423;28;21028;-63
2022/03/13 00:14:20;;;;;;;16.03;10.77;;;;;;;2.60;58.38;100132.50;5058041;28;20201;-63
2022/03/13 00:16:45;;;;;;;18.60;11.67;;;;;;;2.57;58.56;100133.41;5056653;28;20230;-63
2022/03/13 00:19:11;;;;;;;14.97;11.40;;;;;;;2.46;59.29;100127.72;5055649;28;20512;-64
2022/03/13 00:21:36;;;;;;;15.37;10.30;;;;;;;2.48;59.21;100126.00;5057204;28;20257;-64
2022/03/13 00:24:02;;;;;;;15.23;10.50;;;;;;;2.52;59.62;100136.91;5074611;28;20175;-63
2022/03/13 00:26:28;;;;;;;21.90;10.93;;;;;;;2.45;60.25;100128.56;5055741;28;20220;-64
2022/03/13 00:28:54;;;;;;;13.30;10.70;;;;;;;2.44;60.59;100131.16;5053169;28;20640;-62
2022/03/13 00:31:20;;;;;;;13.83;10.73;;;;;;;2.44;60.54;100136.22;5034345;28;20671;-63
2022/03/13 00:33:45;;;;;;;20.40;10.60;;;;;;;2.36;60.58;100133.84;5058289;28;20174;-63
2022/03/13 00:36:10;;;;;;;13.93;10.73;;;;;;;2.23;61.47;100125.63;5053536;28;20628;-62
2022/03/13 00:38:36;;;;;;;14.53;10.97;;;;;;;2.24;60.98;100129.84;5057051;28;20545;-63
2022/03/13 00:41:01;;;;;;;15.07;11.60;;;;;;;2.13;61.34;100127.50;5062976;28;20232;-62
2022/03/13 00:43:28;;;;;;;13.77;10.93;;;;;;;2.17;61.24;100126.59;5072524;28;20209;-64
2022/03/13 00:45:54;;;;;;;15.50;10.50;;;;;;;2.06;61.44;100125.94;5059011;28;20178;-61
2022/03/13 00:48:20;;;;;;;12.60;10.03;;;;;;;2.15;61.65;100130.88;5057117;28;20239;-62
2022/03/13 00:50:45;;;;;;;14.82;12.57;;;;;;;2.41;61.22;100130.34;5057389;28;20446;-63
2022/03/13 00:53:13;;;;;;;15.57;12.33;;;;;;;2.15;61.72;100127.50;5077167;28;20648;-62
2022/03/13 00:55:38;;;;;;;14.63;11.20;;;;;;;2.06;62.07;100124.25;5053063;28;20205;-62
2022/03/13 00:58:04;;;;;;;14.37;10.77;;;;;;;2.04;62.77;100122.63;5053652;28;20732;-61
2022/03/13 01:00:30;;;;;;;13.40;9.93;;;;;;;1.97;62.33;100121.88;5061087;28;20239;-62
2022/03/13 01:02:55;;;;;;;14.93;10.73;;;;;;;1.97;61.91;100116.81;5074880;28;20209;-62
2022/03/13 01:05:26;;;;;;;13.43;9.93;;;;;;;1.85;61.83;100111.97;5071257;28;20194;-61
2022/03/13 01:07:52;;;;;;;18.80;11.23;;;;;;;1.81;62.09;100115.44;5072482;28;20256;-62
2022/03/13 01:10:18;;;;;;;13.97;10.50;;;;;;;1.85;62.44;100112.81;5061561;28;20169;-61
2022/03/13 01:12:43;;;;;;;15.20;11.07;;;;;;;1.90;62.44;100110.22;5071892;28;20165;-62
2022/03/13 01:15:09;;;;;;;17.43;10.63;;;;;;;1.76;63.54;100106.22;5072818;28;20200;-62
2022/03/13 01:17:34;;;;;;;13.83;10.73;;;;;;;1.76;63.26;100108.75;5072230;28;20165;-61
2022/03/13 01:20:02;;;;;;;14.47;10.77;;;;;;;1.74;63.82;100107.94;5072923;28;20203;-62
2022/03/13 01:22:28;;;;;;;16.67;11.87;;;;;;;1.73;63.78;100107.97;5045207;28;20282;-63
2022/03/13 01:24:53;;;;;;;13.93;10.53;;;;;;;1.66;63.68;100111.47;5072807;28;20168;-62
2022/03/13 01:27:20;;;;;;;16.73;11.57;;;;;;;1.68;63.77;100107.22;5072114;28;20213;-62
2022/03/13 01:29:46;;;;;;;14.40;10.37;;;;;;;1.58;63.77;100104.81;5054328;28;20242;-61
2022/03/13 01:32:12;;;;;;;13.67;10.63;;;;;;;1.62;63.36;100100.53;5078037;28;20706;-62
2022/03/13 01:34:41;;;;;;;14.00;10.77;;;;;;;1.47;63.84;100100.81;5071276;28;20208;-61
2022/03/13 01:37:11;;;;;;;16.53;11.23;;;;;;;1.57;63.46;100092.19;5072031;28;20271;-62
2022/03/13 01:39:37;;;;;;;16.43;11.27;;;;;;;1.40;63.50;100097.53;5070651;28;20200;-62
2022/03/13 01:42:04;;;;;;;14.13;10.87;;;;;;;1.45;63.63;100105.91;5061092;28;20231;-60
2022/03/13 01:44:29;;;;;;;14.67;10.67;;;;;;;1.49;62.49;100099.94;5072197;28;20199;-61
2022/03/13 01:46:55;;;;;;;13.60;9.57;;;;;;;1.38;61.06;100100.09;5070799;28;20267;-61
2022/03/13 01:49:21;;;;;;;14.80;11.00;;;;;;;1.36;61.26;100086.59;5071775;28;20715;-61
2022/03/13 01:51:46;;;;;;;15.83;10.30;;;;;;;1.41;61.39;100082.28;5061129;28;20216;-62
2022/03/13 01:54:13;;;;;;;14.00;10.10;;;;;;;1.38;61.19;100086.59;5054116;28;20609;-61
2022/03/13 01:56:40;;;;;;;13.33;10.50;;;;;;;1.29;62.03;100090.13;5059615;28;20247;-60
2022/03/13 01:59:08;;;;;;;17.50;10.33;;;;;;;1.27;62.27;100095.19;5070394;28;20202;-60
2022/03/13 02:01:35;;;;;;;14.77;10.77;;;;;;;1.29;62.15;100090.13;5065027;28;20219;-62
2022/03/13 02:04:00;;;;;;;12.97;10.23;;;;;;;1.26;62.11;100085.09;5069508;28;20183;-61
2022/03/13 02:06:26;;;;;;;13.63;11.30;;;;;;;1.23;63.30;100083.44;5070693;28;20192;-60
2022/03/13 02:08:54;;;;;;;12.30;10.03;;;;;;;1.20;63.18;100080.94;5071472;28;20637;-61
2022/03/13 02:11:21;;;;;;;12.80;10.53;;;;;;;1.16;63.14;100088.66;5052985;28;20316;-61
2022/03/13 02:13:49;;;;;;;13.47;10.33;;;;;;;1.25;63.11;100086.81;5071356;28;20230;-62
2022/03/13 02:16:19;;;;;;;13.27;9.63;;;;;;;1.32;62.56;100091.78;5070394;28;20172;-60
2022/03/13 02:18:48;;;;;;;13.50;9.67;;;;;;;1.25;60.71;100084.28;5070046;28;20181;-62
2022/03/13 02:21:15;;;;;;;13.10;9.23;;;;;;;1.25;59.78;100079.22;5063595;28;20230;-61
2022/03/13 02:23:41;;;;;;;16.77;10.33;;;;;;;1.27;60.60;100084.25;5070173;28;20191;-61
2022/03/13 02:26:07;;;;;;;13.33;9.43;;;;;;;1.25;60.08;100076.66;5071795;28;20181;-62
2022/03/13 02:28:34;;;;;;;14.80;10.13;;;;;;;1.26;59.39;100067.34;5069844;28;20259;-62
2022/03/13 02:31:04;;;;;;;13.47;10.20;;;;;;;1.26;60.38;100077.50;5068943;28;20247;-61
2022/03/13 02:33:30;;;;;;;12.67;9.90;;;;;;;1.27;60.24;100074.09;5070359;28;20569;-62
2022/03/13 02:36:00;;;;;;;16.80;10.30;;;;;;;1.17;60.92;100070.88;5066906;28;20205;-61
2022/03/13 02:38:28;;;;;;;12.30;10.00;;;;;;;1.21;61.18;100074.22;5069673;28;20191;-61
2022/03/13 02:40:55;;;;;;;13.43;9.43;;;;;;;1.18;60.91;100081.84;5061020;28;20251;-60
2022/03/13 02:43:21;;;;;;;14.27;9.43;;;;;;;1.07;61.04;100075.25;5070364;28;20193;-60
2022/03/13 02:45:46;;;;;;;14.30;10.03;;;;;;;0.91;60.33;100078.91;5071683;28;20177;-62
2022/03/13 02:48:12;;;;;;;11.07;8.73;;;;;;;1.08;59.68;100078.63;5073575;28;20173;-62
2022/03/13 02:50:38;;;;;;;11.23;9.27;;;;;;;1.12;59.92;100076.03;5065516;28;20308;-60
2022/03/13 02:53:04;;;;;;;15.20;9.67;;;;;;;1.15;60.01;100076.84;5054202;28;20260;-61
2022/03/13 02:55:29;;;;;;;12.83;9.60;;;;;;;1.11;59.46;100068.44;5074590;28;20829;-61
2022/03/13 02:57:55;;;;;;;11.00;8.97;;;;;;;1.10;59.50;100067.63;5077048;28;20228;-62
2022/03/13 03:00:22;;;;;;;16.07;10.10;;;;;;;1.14;60.08;100068.38;5065052;28;20635;-61
2022/03/13 03:02:48;;;;;;;12.47;9.27;;;;;;;1.12;60.53;100060.81;5088562;28;20267;-61
2022/03/13 03:05:14;;;;;;;15.40;9.87;;;;;;;1.11;61.42;100063.38;5075191;28;20180;-61
2022/03/13 03:07:40;;;;;;;15.77;9.20;;;;;;;1.02;61.75;100060.97;5070855;28;20699;-60
2022/03/13 03:10:12;;;;;;;14.13;9.33;;;;;;;0.94;61.78;100053.50;5064108;28;20275;-61
2022/03/13 03:12:37;;;;;;;14.17;10.10;;;;;;;0.98;62.22;100057.69;5089788;28;20195;-62
2022/03/13 03:15:03;;;;;;;14.93;10.60;;;;;;;0.93;62.52;100057.75;5073788;28;20201;-61
2022/03/13 03:17:28;;;;;;;15.87;9.70;;;;;;;0.85;62.10;100057.03;5074675;28;20169;-61
2022/03/13 03:19:54;;;;;;;12.23;9.73;;;;;;;0.80;62.62;100068.91;5073856;28;20188;-61
2022/03/13 03:22:19;;;;;;;11.80;9.00;;;;;;;0.75;61.89;100065.63;5048210;28;20243;-60
2022/03/13 03:24:46;;;;;;;12.90;9.00;;;;;;;0.67;61.74;100064.88;5074904;28;20248;-61
2022/03/13 03:27:12;;;;;;;12.70;9.37;;;;;;;0.75;61.49;100065.63;5074994;28;20177;-63
2022/03/13 03:29:37;;;;;;;13.10;9.40;;;;;;;0.75;61.29;100061.38;5074497;28;20508;-61
2022/03/13 03:32:03;;;;;;;14.20;9.67;;;;;;;0.82;61.29;100064.69;5063825;28;20315;-61
2022/03/13 03:34:28;;;;;;;13.33;9.73;;;;;;;0.78;61.44;100068.94;5074865;28;20184;-62
2022/03/13 03:36:58;;;;;;;15.10;10.20;;;;;;;0.74;61.74;100067.31;5074950;28;20251;-61
2022/03/13 03:39:25;;;;;;;14.27;9.87;;;;;;;0.76;61.96;100064.78;5072378;28;20185;-62
2022/03/13 03:41:53;;;;;;;15.10;9.40;;;;;;;0.72;61.60;100065.66;5066194;28;20306;-61
2022/03/13 03:44:20;;;;;;;11.80;8.93;;;;;;;0.68;61.60;100069.91;5073107;28;20197;-60
2022/03/13 03:46:47;;;;;;;11.40;9.00;;;;;;;0.62;61.83;100070.00;5073444;28;20169;-61
2022/03/13 03:49:14;;;;;;;13.37;9.27;;;;;;;0.63;61.83;100062.41;5074070;28;20610;-60
2022/03/13 03:51:40;;;;;;;12.17;9.97;;;;;;;0.60;61.56;100067.50;5061018;28;20220;-61
2022/03/13 03:54:06;;;;;;;12.23;9.10;;;;;;;0.57;61.84;100059.97;5076907;28;20235;-62
2022/03/13 03:56:32;;;;;;;11.13;8.97;;;;;;;0.53;62.48;100060.84;5076177;28;20185;-62
2022/03/13 03:58:58;;;;;;;12.60;8.60;;;;;;;0.56;62.43;100052.38;5071952;28;20528;-61
2022/03/13 04:01:23;;;;;;;11.63;8.73;;;;;;;0.52;62.92;100058.34;5052468;28;20224;-60
2022/03/13 04:03:49;;;;;;;11.00;8.40;;;;;;;0.51;63.25;100059.19;5067576;28;20188;-61
2022/03/13 04:06:15;;;;;;;14.77;9.63;;;;;;;0.42;64.03;100070.28;5073018;28;20248;-61
2022/03/13 04:08:40;;;;;;;13.30;9.80;;;;;;;0.35;64.10;100061.94;5073649;28;20168;-60
2022/03/13 04:11:08;;;;;;;11.83;8.93;;;;;;;0.29;63.90;100060.31;5063557;28;20325;-61
2022/03/13 04:13:37;;;;;;;13.80;9.73;;;;;;;0.39;63.79;100062.75;5060901;28;20251;-61
2022/03/13 04:16:02;;;;;;;15.53;9.10;;;;;;;0.34;63.70;100059.44;5051936;28;20307;-61
2022/03/13 04:18:28;;;;;;;12.50;9.07;;;;;;;0.31;63.72;100057.75;5061094;28;20185;-61
2022/03/13 04:20:53;;;;;;;11.87;8.93;;;;;;;0.33;64.21;100058.59;5050747;28;20685;-60
2022/03/13 04:23:18;;;;;;;13.77;9.10;;;;;;;0.27;64.17;100063.72;5062401;28;20230;-61
2022/03/13 04:25:44;;;;;;;13.63;9.13;;;;;;;0.07;64.80;100063.97;5053873;28;20184;-60
2022/03/13 04:28:10;;;;;;;11.83;9.10;;;;;;;0.18;64.50;100064.69;5053543;28;20183;-60
2022/03/13 04:30:39;;;;;;;11.33;8.33;;;;;;;0.15;64.96;100073.16;5025309;28;20228;-60
2022/03/13 04:33:05;;;;;;;12.77;8.30;;;;;;;0.15;65.04;100067.28;5065001;28;20176;-62
2022/03/13 04:35:30;;;;;;;12.17;9.00;;;;;;;0.16;64.76;100066.38;5053444;28;20282;-61
2022/03/13 04:37:55;;;;;;;15.83;9.10;;;;;;;0.17;64.49;100068.06;5053319;28;20820;-61
2022/03/13 04:40:21;;;;;;;13.63;9.27;;;;;;;0.17;64.55;100069.78;5061979;28;20192;-60
2022/03/13 04:42:46;;;;;;;12.97;8.70;;;;;;;0.13;63.97;100066.44;5072828;28;20290;-61
2022/03/13 04:45:12;;;;;;;11.37;9.57;;;;;;;0.10;64.69;100067.31;5073568;28;20289;-62
2022/03/13 04:47:38;;;;;;;11.83;8.93;;;;;;;-0.01;64.72;100067.44;5071852;28;20176;-59
2022/03/13 04:50:03;;;;;;;10.20;9.13;;;;;;;0.06;64.62;100073.25;5064457;28;20216;-60
2022/03/13 04:52:29;;;;;;;14.53;9.63;;;;;;;0.03;64.82;100078.34;5060379;28;20204;-61
2022/03/13 04:54:54;;;;;;;11.83;8.40;;;;;;;0.04;64.93;100084.25;5054939;28;20685;-61
2022/03/13 04:57:20;;;;;;;11.10;8.47;;;;;;;-0.01;64.89;100077.56;5050832;28;20274;-62
2022/03/13 04:59:45;;;;;;;12.27;8.87;;;;;;;0.03;64.83;100078.34;5051522;28;20173;-61
2022/03/13 05:02:11;;;;;;;14.37;8.93;;;;;;;-0.03;65.10;100075.91;5043157;28;20678;-61
2022/03/13 05:04:37;;;;;;;12.53;9.40;;;;;;;-0.04;65.27;100086.84;5052709;28;20580;-60
2022/03/13 05:07:02;;;;;;;10.53;8.83;;;;;;;-0.07;65.77;100082.69;5052509;28;20177;-61
2022/03/13 05:09:28;;;;;;;10.43;8.67;;;;;;;-0.10;65.42;100085.25;5052459;28;20551;-63
2022/03/13 05:11:54;;;;;;;11.10;8.77;;;;;;;-0.15;65.36;100091.19;5048859;28;20659;-64
2022/03/13 05:14:19;;;;;;;11.10;8.13;;;;;;;-0.09;65.00;100089.44;5069635;28;20231;-62
2022/03/13 05:16:45;;;;;;;14.40;9.37;;;;;;;-0.10;65.43;100085.25;5070994;28;20185;-63
2022/03/13 05:19:10;;;;;;;10.83;8.70;;;;;;;-0.15;64.96;100081.91;5072419;28;20181;-62
2022/03/13 05:21:36;;;;;;;12.10;8.67;;;;;;;-0.15;65.14;100089.50;5081385;28;21095;-64
2022/03/13 05:24:01;;;;;;;12.57;9.13;;;;;;;-0.15;65.30;100092.03;5076156;28;20176;-64
2022/03/13 05:26:27;;;;;;;13.00;8.87;;;;;;;-0.17;65.79;100099.63;5088179;28;20257;-63
2022/03/13 05:28:53;;;;;;;11.87;8.77;;;;;;;-0.14;65.23;100097.94;5087765;28;20178;-63
2022/03/13 05:31:19;;;;;;;10.77;9.00;;;;;;;-0.07;64.37;100099.56;5064350;28;20631;-61
2022/03/13 05:33:44;;;;;;;10.20;9.10;;;;;;;-0.13;64.97;100105.50;5078263;28;20184;-63
2022/03/13 05:36:09;;;;;;;12.87;9.03;;;;;;;-0.15;64.15;100109.72;5087921;28;20264;-62
2022/03/13 05:38:35;;;;;;;13.20;8.77;;;;;;;-0.08;63.74;100102.94;5072276;28;20320;-63
2022/03/13 05:41:01;;;;;;;10.67;8.57;;;;;;;-0.10;63.21;100107.16;5061875;28;20230;-64
2022/03/13 05:43:27;;;;;;;13.47;8.63;;;;;;;-0.08;63.38;100118.94;5062123;28;20196;-62
2022/03/13 05:45:52;;;;;;;11.70;8.87;;;;;;;-0.07;63.46;100110.50;5072504;28;20180;-63
2022/03/13 05:48:20;;;;;;;11.20;8.73;;;;;;;0.00;61.93;100111.28;5070497;28;20183;-63
2022/03/13 05:50:45;;;;;;;11.30;8.97;;;;;;;0.02;63.00;100112.09;5067503;28;20234;-65
2022/03/13 05:53:12;;;;;;;11.80;8.80;;;;;;;0.13;63.42;100124.63;5075208;28;20187;-65
2022/03/13 05:55:37;;;;;;;12.37;8.73;;;;;;;0.08;62.74;100131.44;5071952;28;20203;-62
2022/03/13 05:58:03;;;;;;;12.63;9.63;;;;;;;0.07;62.51;100125.50;5071660;28;20216;-64
2022/03/13 06:00:32;;;;;;;11.17;8.53;;;;;;;0.09;62.70;100133.94;5063785;28;20215;-63
2022/03/13 06:02:58;;;;;;;10.27;7.70;;;;;;;0.17;62.86;100133.84;5083929;28;20177;-63
2022/03/13 06:05:23;;;;;;;10.03;8.07;;;;;;;0.25;61.82;100133.75;5070253;28;20180;-66
2022/03/13 06:07:52;;;;;;;11.90;9.20;;;;;;;0.25;62.60;100143.88;5071461;28;20184;-63
2022/03/13 06:10:18;;;;;;;11.30;8.03;;;;;;;0.20;62.33;100138.88;5060425;28;20172;-63
2022/03/13 06:12:44;;;;;;;13.73;9.67;;;;;;;0.24;62.37;100142.22;5056235;28;20172;-64
2022/03/13 06:15:11;;;;;;;11.17;8.93;;;;;;;0.30;62.45;100134.56;5072135;28;20193;-64
2022/03/13 06:17:43;;;;;;;12.13;9.43;;;;;;;0.18;62.54;100142.28;5069536;28;20249;-64
2022/03/13 06:20:12;;;;;;;14.50;9.53;;;;;;;0.40;61.59;100142.88;5060507;28;20616;-62
2022/03/13 06:22:43;;;;;;;11.57;9.03;;;;;;;0.47;61.43;100150.38;5061593;28;20298;-63
2022/03/13 06:25:11;;;;;;;10.83;8.17;;;;;;;0.60;60.89;100150.22;5070543;28;20177;-63
2022/03/13 06:27:37;;;;;;;10.97;8.00;;;;;;;0.68;59.13;100135.75;5071287;28;20529;-64
2022/03/13 06:30:12;;;;;;;13.40;8.07;;;;;;;0.86;57.40;100139.75;5064108;28;20216;-64
2022/03/13 06:32:43;;;;;;;10.83;8.37;;;;;;;1.05;56.28;100136.94;5080983;28;20736;-63
2022/03/13 06:35:10;;;;;;;10.47;8.57;;;;;;;1.35;57.28;100139.88;5050273;28;20580;-63
2022/03/13 06:37:37;;;;;;;10.97;8.57;;;;;;;1.70;55.83;100134.22;5049494;28;20223;-63
2022/03/13 06:40:03;;;;;;;12.03;8.07;;;;;;;2.30;53.58;100137.34;5059399;28;20226;-65
2022/03/13 06:42:28;;;;;;;10.20;7.40;;;;;;;3.17;47.79;100135.50;5053412;28;20197;-63
2022/03/13 06:44:54;;;;;;;11.37;7.40;;;;;;;4.03;41.93;100130.78;5071432;28;20181;-63
2022/03/13 06:47:20;;;;;;;10.53;7.00;;;;;;;5.32;39.57;100140.63;5071316;28;20300;-64
2022/03/13 06:49:46;;;;;;;10.53;7.13;;;;;;;6.58;37.00;100144.00;5072665;28;20560;-67
2022/03/13 06:52:11;;;;;;;10.73;7.47;;;;;;;7.27;33.98;100145.63;5056178;28;20224;-64
2022/03/13 06:54:36;;;;;;;16.20;7.37;;;;;;;7.08;33.06;100150.63;5071274;28;20292;-63
2022/03/13 06:57:02;;;;;;;8.63;7.03;;;;;;;7.88;32.41;100155.03;5069898;28;20243;-65
2022/03/13 06:59:27;;;;;;;10.87;6.93;;;;;;;9.45;29.98;100151.41;5050625;28;20231;-62
2022/03/13 07:01:53;;;;;;;13.17;6.83;;;;;;;9.63;28.96;100152.22;5043282;28;20231;-64
2022/03/13 07:04:18;;;;;;;12.53;9.17;;;;;;;9.39;29.38;100150.84;5052941;28;20652;-64
2022/03/13 07:06:43;;;;;;;9.13;7.67;;;;;;;8.70;29.39;100145.53;5051201;28;20173;-64
2022/03/13 07:09:09;;;;;;;8.70;7.47;;;;;;;8.15;29.75;100141.09;5050302;28;20183;-63
2022/03/13 07:11:34;;;;;;;9.37;7.07;;;;;;;6.48;31.94;100146.06;5055097;28;20231;-65
2022/03/13 07:14:03;;;;;;;12.27;7.57;;;;;;;5.72;34.00;100138.47;5050535;28;20192;-66
2022/03/13 07:16:28;;;;;;;16.20;7.30;;;;;;;5.16;35.39;100142.00;5060321;28;20849;-65
2022/03/13 07:18:53;;;;;;;9.73;7.50;;;;;;;5.23;35.50;100146.00;5082372;28;20271;-65
2022/03/13 07:21:19;;;;;;;9.57;7.30;;;;;;;4.97;34.90;100155.31;5041980;28;20226;-62
2022/03/13 07:23:44;;;;;;;9.47;7.03;;;;;;;4.72;35.76;100164.56;5056976;28;20261;-64
2022/03/13 07:26:10;;;;;;;13.83;8.00;;;;;;;4.65;36.10;100166.44;5066612;28;20606;-67
2022/03/13 07:28:36;;;;;;;9.57;7.50;;;;;;;4.74;35.84;100166.19;5050054;28;20188;-64
2022/03/13 07:31:01;;;;;;;11.33;7.83;;;;;;;4.77;35.91;100160.16;5049555;28;20240;-65
2022/03/13 07:33:26;;;;;;;8.10;7.00;;;;;;;4.68;36.04;100161.25;5068078;28;20180;-64
2022/03/13 07:35:52;;;;;;;9.30;7.43;;;;;;;4.69;35.95;100155.28;5069873;28;20218;-65
2022/03/13 07:38:17;;;;;;;8.20;6.17;;;;;;;4.70;35.71;100154.38;5074348;28;20185;-66
2022/03/13 07:40:44;;;;;;;13.93;7.50;;;;;;;4.65;35.79;100153.69;5064165;28;20228;-64
2022/03/13 07:43:11;;;;;;;8.40;7.30;;;;;;;4.58;36.77;100164.97;5052725;28;20645;-65
2022/03/13 07:45:36;;;;;;;11.32;7.53;;;;;;;4.77;36.11;100163.53;5069708;28;20426;-64
2022/03/13 07:48:02;;;;;;;10.10;7.70;;;;;;;4.93;36.50;100158.81;5073765;28;20193;-66
2022/03/13 07:50:28;;;;;;;10.97;7.23;;;;;;;5.32;35.15;100160.16;5048356;28;20235;-65
2022/03/13 07:52:54;;;;;;;10.10;8.75;;;;;;;6.06;33.89;100164.59;5071846;28;20931;-63
2022/03/13 07:55:21;;;;;;;8.50;7.23;;;;;;;6.98;32.63;100173.16;5072855;28;20260;-62
2022/03/13 07:57:47;;;;;;;10.33;8.07;;;;;;;7.94;30.99;100165.91;5062034;28;20239;-65
2022/03/13 08:00:15;;;;;;;12.40;8.10;;;;;;;7.67;31.13;100156.78;5033909;28;20177;-61
2022/03/13 08:02:44;;;;;;;13.53;7.53;;;;;;;6.77;32.04;100165.44;5055957;28;20190;-63
2022/03/13 08:05:10;;;;;;;9.43;7.40;;;;;;;6.50;32.99;100167.28;5071937;28;20176;-62
2022/03/13 08:07:35;;;;;;;24.43;16.23;;;;;;;6.60;32.95;100160.94;5072311;28;20214;-62
2022/03/13 08:10:01;;;;;;;9.27;7.23;;;;;;;6.56;33.29;100164.50;5074210;28;20181;-62
2022/03/13 08:12:27;;;;;;;10.70;7.43;;;;;;;6.81;32.78;100155.91;5062600;28;20234;-65
2022/03/13 08:14:52;;;;;;;9.73;7.67;;;;;;;6.91;32.52;100146.19;5072820;28;20306;-64
2022/03/13 08:17:18;;;;;;;12.53;6.70;;;;;;;7.26;32.26;100149.88;5061879;28;20318;-66
2022/03/13 08:19:43;;;;;;;10.73;7.80;;;;;;;7.61;31.81;100148.53;5073971;28;20204;-63
2022/03/13 08:22:09;;;;;;;8.60;7.33;;;;;;;7.33;31.31;100159.88;5062948;28;20670;-63
2022/03/13 08:24:34;;;;;;;11.60;7.60;;;;;;;6.94;32.26;100161.38;5074296;28;20212;-63
2022/03/13 08:26:59;;;;;;;8.57;7.13;;;;;;;6.80;32.55;100151.69;5072400;28;20272;-62
2022/03/13 08:29:25;;;;;;;9.27;7.50;;;;;;;6.90;32.59;100150.44;5072053;28;20195;-63
2022/03/13 08:31:50;;;;;;;10.10;7.70;;;;;;;7.06;32.70;100149.88;5042111;28;20825;-63
2022/03/13 08:34:15;;;;;;;10.97;8.57;;;;;;;7.09;32.25;100142.06;5070538;28;20214;-63
2022/03/13 08:36:46;;;;;;;9.77;8.40;;;;;;;6.80;32.79;100141.47;5073975;28;20188;-63
2022/03/13 08:39:11;;;;;;;13.67;7.90;;;;;;;6.43;33.17;100141.09;5073332;28;20237;-64
2022/03/13 08:41:37;;;;;;;9.30;7.97;;;;;;;6.62;33.29;100141.28;5062590;28;20235;-65
2022/03/13 08:44:03;;;;;;;11.73;8.40;;;;;;;6.61;33.15;100141.31;5075368;28;20192;-63
2022/03/13 08:46:28;;;;;;;10.00;7.50;;;;;;;6.74;33.08;100145.06;5073309;28;20179;-64
2022/03/13 08:48:53;;;;;;;8.87;7.90;;;;;;;7.01;32.85;100141.50;5071718;28;20698;-64
2022/03/13 08:51:21;;;;;;;9.60;7.53;;;;;;;7.34;31.64;100144.47;5062524;28;20232;-65
2022/03/13 08:53:47;;;;;;;8.90;7.73;;;;;;;7.22;31.98;100144.97;5058736;28;20204;-64
2022/03/13 08:56:14;;;;;;;8.57;7.57;;;;;;;7.18;32.48;100136.59;5053239;28;20209;-62
2022/03/13 08:58:44;;;;;;;9.97;8.03;;;;;;;7.31;32.10;100133.53;5053092;28;20228;-62
2022/03/13 09:01:09;;;;;;;9.20;7.67;;;;;;;7.29;31.99;100138.69;5046192;28;20293;-62
2022/03/13 09:03:36;;;;;;;12.87;8.27;;;;;;;7.31;31.89;100138.66;5064213;28;20183;-64
2022/03/13 09:06:01;;;;;;;13.50;8.13;;;;;;;7.52;31.88;100135.22;5071722;28;20185;-63
2022/03/13 09:08:27;;;;;;;12.07;8.03;;;;;;;7.81;32.11;100125.47;5072386;28;20174;-61
2022/03/13 09:10:53;;;;;;;10.63;7.87;;;;;;;8.04;31.59;100129.59;5062425;28;20279;-63
2022/03/13 09:13:20;;;;;;;11.23;7.83;;;;;;;8.42;31.12;100133.09;5072059;28;20256;-62
2022/03/13 09:15:47;;;;;;;13.83;8.10;;;;;;;8.51;30.81;100141.25;5071668;28;20207;-62
2022/03/13 09:18:13;;;;;;;11.27;7.57;;;;;;;9.12;29.69;100129.03;5072503;28;20601;-64
2022/03/13 09:20:39;;;;;;;8.27;7.30;;;;;;;10.16;28.94;100126.44;5059558;28;20228;-62
2022/03/13 09:23:04;;;;;;;9.03;7.53;;;;;;;9.93;28.52;100119.94;5071841;28;20183;-63
2022/03/13 09:25:31;;;;;;;9.43;7.20;;;;;;;11.06;27.21;100119.88;5071365;28;20189;-63
2022/03/13 09:27:56;;;;;;;10.03;8.60;;;;;;;11.60;25.93;100118.56;5072455;28;20449;-63
2022/03/13 09:30:22;;;;;;;10.17;7.40;;;;;;;12.21;25.79;100128.75;5061347;28;20337;-65
2022/03/13 09:32:49;;;;;;;8.53;7.70;;;;;;;12.05;25.55;100136.59;5072012;28;20180;-65
2022/03/13 09:35:14;;;;;;;8.87;7.83;;;;;;;12.81;24.49;100132.75;5071195;28;20199;-66
2022/03/13 09:37:40;;;;;;;8.57;7.50;;;;;;;12.93;24.74;100123.41;5070297;28;20207;-64
2022/03/13 09:40:09;;;;;;;10.30;8.30;;;;;;;14.74;22.75;100123.41;5063713;28;20180;-63
2022/03/13 09:42:34;;;;;;;10.80;7.63;;;;;;;14.08;22.87;100126.22;5086027;28;20231;-64
2022/03/13 09:45:00;;;;;;;12.27;8.00;;;;;;;13.94;22.35;100133.19;5070938;28;20192;-64
2022/03/13 09:47:29;;;;;;;11.03;8.83;;;;;;;14.58;22.17;100144.34;5070222;28;20177;-63
2022/03/13 09:49:54;;;;;;;8.60;7.53;;;;;;;16.84;20.42;100137.88;5070996;28;20691;-64
2022/03/13 09:52:19;;;;;;;13.87;8.10;;;;;;;16.98;19.67;100136.78;5042341;28;20305;-64
2022/03/13 09:54:45;;;;;;;9.47;8.47;;;;;;;15.34;20.88;100134.56;5052260;28;20201;-63
2022/03/13 09:57:10;;;;;;;9.97;7.87;;;;;;;14.31;22.09;100145.34;5051046;28;20622;-61
2022/03/13 09:59:36;;;;;;;11.03;8.77;;;;;;;14.63;21.32;100147.44;5068760;28;20181;-61
2022/03/13 10:02:06;;;;;;;10.83;8.90;;;;;;;14.02;22.11;100143.81;5060622;28;20307;-63
2022/03/13 10:04:32;;;;;;;8.77;7.73;;;;;;;14.08;22.41;100134.84;5054066;28;20215;-64
2022/03/13 10:07:11;;;;;;;10.83;8.17;;;;;;;14.89;21.83;100137.00;5071916;28;20164;-63
2022/03/13 10:09:40;;;;;;;8.73;7.83;;;;;;;16.02;20.62;100136.47;5071416;28;20288;-62
2022/03/13 10:12:16;;;;;;;11.73;7.87;;;;;;;17.02;19.42;100138.22;5047008;28;20656;-64
2022/03/13 10:15:03;;;;;;;9.93;8.40;;;;;;;17.63;18.74;100134.91;5071982;28;20204;-63
2022/03/13 10:17:36;;;;;;;9.73;8.67;;;;;;;19.14;17.67;100134.09;5069558;28;20308;-62
2022/03/13 10:20:27;;;;;;;9.57;8.03;;;;;;;17.35;18.49;100133.78;5062756;28;20753;-63
2022/03/13 10:22:59;;;;;;;10.07;8.23;;;;;;;15.15;20.64;100135.94;5070426;28;20196;-66
2022/03/13 10:25:31;;;;;;;12.77;8.13;;;;;;;15.04;21.53;100122.94;5070089;28;20697;-63
2022/03/13 10:28:12;;;;;;;11.40;8.30;;;;;;;15.04;21.38;100122.13;5069657;28;20647;-63
2022/03/13 10:30:40;;;;;;;9.27;8.30;;;;;;;14.47;21.88;100127.78;5059071;28;20244;-64
2022/03/13 10:33:08;;;;;;;10.17;8.17;;;;;;;14.09;22.25;100120.97;5058777;28;20275;-61
2022/03/13 10:35:34;;;;;;;9.77;8.43;;;;;;;13.79;22.72;100103.19;5069863;28;20272;-63
2022/03/13 10:37:59;;;;;;;12.57;8.23;;;;;;;12.91;24.12;100113.19;5072281;28;20278;-62
2022/03/13 10:40:33;;;;;;;9.60;8.37;;;;;;;11.92;24.93;100113.25;5052267;28;20235;-62
2022/03/13 10:43:02;;;;;;;8.97;7.90;;;;;;;10.79;25.98;100107.66;5050568;28;20241;-64
2022/03/13 10:45:37;;;;;;;9.30;8.40;;;;;;;10.07;27.20;100111.50;5071458;28;20172;-63
2022/03/13 10:48:28;;;;;;;15.60;8.30;;;;;;;9.82;27.66;100120.47;5071131;28;20176;-62
2022/03/13 10:51:00;;;;;;;12.03;9.43;;;;;;;9.71;28.61;100115.06;5063251;28;20330;-62
2022/03/13 10:53:30;;;;;;;9.83;8.17;;;;;;;10.07;27.58;100111.50;5063713;28;20173;-63
2022/03/13 10:56:14;;;;;;;10.37;8.07;;;;;;;10.04;28.09;100107.34;5071337;28;20201;-64
2022/03/13 10:58:48;;;;;;;9.57;8.57;;;;;;;9.99;27.81;100105.00;5069940;28;20224;-61
2022/03/13 11:01:18;;;;;;;8.70;7.60;;;;;;;9.91;28.61;100103.75;5062893;28;20234;-64
2022/03/13 11:03:50;;;;;;;9.67;8.30;;;;;;;9.88;27.81;100094.47;5065152;28;20208;-61
2022/03/13 11:06:16;;;;;;;9.60;8.43;;;;;;;9.62;28.79;100104.31;5071376;28;20191;-62
2022/03/13 11:08:41;;;;;;;11.40;8.17;;;;;;;9.49;29.65;100096.41;5071969;28;20173;-62
2022/03/13 11:11:18;;;;;;;8.70;7.80;;;;;;;9.69;28.93;100105.69;5067021;28;20315;-64
2022/03/13 11:13:52;;;;;;;11.07;8.47;;;;;;;9.72;28.63;100099.56;5081027;28;20173;-63
2022/03/13 11:16:38;;;;;;;10.27;8.50;;;;;;;9.60;28.95;100092.47;5075311;28;20200;-62
2022/03/13 11:19:05;;;;;;;12.90;8.00;;;;;;;9.80;28.52;100087.16;5073522;28;20537;-64
2022/03/13 11:21:33;;;;;;;12.93;8.93;;;;;;;9.79;28.70;100084.69;5066687;28;20751;-62
2022/03/13 11:24:03;;;;;;;9.17;7.90;;;;;;;9.91;29.07;100084.03;5078412;28;20596;-62